Terminal Aerodrome Forecast
Issued by NWS Paducah, KY

Home | Current Version | Previous Version | Text Only | Print | Product List | Glossary On
Versions: 1 2 3 4 5 6 7 8 9 10 11 12 13 14 15 16 17 18 19 20 21 22 23
763
FTUS43 KPAH 141138
TAFEVV
TAF
KEVV 141138Z 1412/1512 VRB03KT P6SM FEW250
     FM141700 14005KT P6SM FEW060 BKN150
     FM142000 15006KT P6SM OVC080
     FM150000 13005KT P6SM -SN SCT025 OVC040
      TEMPO 1503/1507 3SM -SN BR BKN025
     FM150700 17005KT P6SM OVC070=

USA.gov is the U.S. government's official web portal to all federal, state and local government web resources and services.